Clinton, North Carolina
Current Conditions -  °F | °C
As of 1:15 AM on Friday 19 Dec 2014 (Local Time) from KCTZ Reporting Station
Broken Clouds Broken Clouds  
Wind Chill: 40°   Ceiling: 7000
Heat Index: 40°   Visibility: 10mi
Dew Point: 36°   Wind: 0mph
Humidity: 83%   Direction: NA
Pressure: 30.12"   Gusts: NA
Location:  35°N, 78.32°W
Report Text: KCTZ 190615Z AUTO 00000KT 10SM BKN070 05/02 A3012 RMK AO2 T00470021
Loading
Personal Weather Stations






























Interactive Weather Map New forecast layout! Learn more

10-Day Weather Forecast

Advertisements
Track Severe Weather on mobile